In Rescue
 
Open Full Screen Window  High Contrast Mode
July 23, 2019 1:32 AM EDT
Weather Information
Wind Direction
  ---
Wind Speed
  00 kt (0 mph)
Wind Gust
  00 kt (0 mph)
Altimeter
29.88 in
Visibility
7 SM
Temperature
15° C
59° F
Dewpoint
14° C
57° F
Humidity
94%
Sky Condition
Broken @ 9,500 ft
Scattered @ 100 ft
VFR

METAR KCDA 230532Z AUTO 00000KT 7SM SCT001 BKN095 15/14 A2988 RMK AO2 T01470140

FAA Disclaimer: The data displayed is for advisory purposes only and is not to be used for flight planning or operations.